createdAt,value
2022-09-28T00:00:28.726Z,7.97
2022-09-28T00:02:57.315Z,7.91
2022-09-28T00:05:27.019Z,7.99
2022-09-28T00:07:55.795Z,8.00
2022-09-28T00:10:24.441Z,7.98
2022-09-28T00:12:55.148Z,7.99
2022-09-28T00:15:24.567Z,8.00
2022-09-28T00:17:52.994Z,8.01
2022-09-28T00:20:22.620Z,7.99
2022-09-28T00:22:50.986Z,8.04
2022-09-28T00:25:21.969Z,8.03
2022-09-28T00:27:53.168Z,8.02
2022-09-28T00:30:21.589Z,8.08
2022-09-28T00:32:49.926Z,8.08
2022-09-28T00:35:18.246Z,8.07
2022-09-28T00:37:48.227Z,8.15
2022-09-28T00:40:16.781Z,8.06
2022-09-28T00:42:45.164Z,8.06
2022-09-28T00:45:14.817Z,8.12
2022-09-28T00:47:51.570Z,8.05
2022-09-28T00:50:28.120Z,8.06
2022-09-28T00:53:01.742Z,8.04
2022-09-28T00:55:44.373Z,8.06
2022-09-28T00:58:17.965Z,8.12
2022-09-28T01:00:48.541Z,8.07
2022-09-28T01:03:18.272Z,8.07
2022-09-28T01:05:48.015Z,8.09
2022-09-28T01:08:17.398Z,8.13
2022-09-28T01:10:46.174Z,8.15
2022-09-28T01:13:15.428Z,8.14
2022-09-28T01:15:54.754Z,8.17
2022-09-28T01:18:34.328Z,8.21
2022-09-28T01:21:07.154Z,8.22
2022-09-28T01:24:23.078Z,8.17
2022-09-28T01:27:06.909Z,8.18
2022-09-28T01:29:49.348Z,8.16
2022-09-28T01:32:28.992Z,8.24
2022-09-28T01:35:03.182Z,8.21
2022-09-28T01:37:42.965Z,8.27
2022-09-28T01:40:13.430Z,8.29
2022-09-28T01:42:46.170Z,8.26
2022-09-28T01:45:20.246Z,8.28
2022-09-28T01:47:50.097Z,8.31
2022-09-28T01:50:23.965Z,8.29
2022-09-28T01:52:56.386Z,8.32
2022-09-28T01:55:32.442Z,8.31
2022-09-28T01:58:08.214Z,8.34
2022-09-28T02:00:41.523Z,8.34
2022-09-28T02:03:16.696Z,8.35
2022-09-28T02:05:53.587Z,8.37
2022-09-28T02:08:28.334Z,8.42
2022-09-28T02:11:03.347Z,8.46
2022-09-28T02:13:37.450Z,8.50
2022-09-28T02:16:11.921Z,8.53
2022-09-28T02:18:40.316Z,8.56
2022-09-28T02:21:13.739Z,8.59
2022-09-28T02:23:53.510Z,8.62
2022-09-28T02:26:28.506Z,8.60
2022-09-28T02:28:59.312Z,8.64
2022-09-28T02:31:28.627Z,8.64
2022-09-28T02:33:58.946Z,8.73
2022-09-28T02:36:28.789Z,8.71
2022-09-28T02:38:58.923Z,8.76
2022-09-28T02:41:49.571Z,8.69
2022-09-28T02:44:44.164Z,8.74
2022-09-28T02:47:25.823Z,8.73
2022-09-28T02:50:05.653Z,8.81
2022-09-28T02:53:00.851Z,8.84
2022-09-28T02:55:44.534Z,8.85
2022-09-28T02:58:25.178Z,8.84
2022-09-28T03:01:07.680Z,8.83
2022-09-28T03:03:47.358Z,8.82
2022-09-28T03:06:23.733Z,8.86
2022-09-28T03:09:00.721Z,8.89
2022-09-28T03:11:39.206Z,8.88
2022-09-28T03:14:08.479Z,8.95
2022-09-28T03:16:48.835Z,8.98
2022-09-28T03:19:20.824Z,9.00
2022-09-28T03:21:49.300Z,8.99
2022-09-28T03:24:17.657Z,9.01
2022-09-28T03:26:46.011Z,8.96
2022-09-28T03:29:15.386Z,9.01
2022-09-28T03:31:48.988Z,9.01
2022-09-28T03:34:17.434Z,9.02
2022-09-28T03:36:45.736Z,9.00
2022-09-28T03:39:14.111Z,9.00
2022-09-28T03:41:42.687Z,9.03
2022-09-28T03:44:11.072Z,9.04
2022-09-28T03:46:40.332Z,9.06
2022-09-28T03:49:11.984Z,9.04
2022-09-28T03:51:40.391Z,9.07
2022-09-28T03:54:10.432Z,9.10
2022-09-28T03:56:39.179Z,8.97
2022-09-28T03:59:08.070Z,8.92
2022-09-28T04:01:38.113Z,8.87
2022-09-28T04:04:06.501Z,8.76
2022-09-28T04:06:36.343Z,8.75
2022-09-28T04:09:06.076Z,8.68
2022-09-28T04:11:42.969Z,8.70
2022-09-28T04:14:22.239Z,8.66
2022-09-28T04:16:54.212Z,8.68
2022-09-28T04:19:24.379Z,8.65
2022-09-28T04:22:19.123Z,8.63
2022-09-28T04:24:47.596Z,8.63
2022-09-28T04:27:33.605Z,8.60
2022-09-28T04:30:03.425Z,8.64
2022-09-28T04:32:33.513Z,8.63
2022-09-28T04:35:01.874Z,8.67
2022-09-28T04:37:32.080Z,8.68
2022-09-28T04:40:00.585Z,8.65
2022-09-28T04:42:29.051Z,8.60
2022-09-28T04:44:58.747Z,8.61
2022-09-28T04:47:27.180Z,8.62
2022-09-28T04:49:55.399Z,8.60
2022-09-28T04:52:31.935Z,8.61
2022-09-28T04:55:00.228Z,8.58
2022-09-28T04:57:28.605Z,8.54
2022-09-28T04:59:56.924Z,8.59
2022-09-28T05:02:25.271Z,8.57
2022-09-28T05:05:12.037Z,8.62
2022-09-28T05:08:02.335Z,8.53
2022-09-28T05:10:30.614Z,8.55
2022-09-28T05:12:58.927Z,8.50
2022-09-28T05:15:28.209Z,8.45
2022-09-28T05:17:56.542Z,8.46
2022-09-28T05:20:42.593Z,8.43
2022-09-28T05:23:13.098Z,8.47
2022-09-28T05:25:45.338Z,8.49
2022-09-28T05:28:26.061Z,8.49
2022-09-28T05:31:13.098Z,8.53
2022-09-28T05:34:11.184Z,8.64
2022-09-28T05:36:40.173Z,8.57
2022-09-28T05:39:10.578Z,8.55
2022-09-28T05:41:39.137Z,8.55
2022-09-28T05:44:07.594Z,8.52
2022-09-28T05:46:37.393Z,8.48
2022-09-28T05:49:05.762Z,8.53
2022-09-28T05:51:34.291Z,8.44
2022-09-28T05:54:05.953Z,8.42
2022-09-28T05:56:37.537Z,8.53
2022-09-28T05:59:08.199Z,8.49
2022-09-28T06:01:38.105Z,8.51
2022-09-28T06:04:10.021Z,8.45
2022-09-28T06:06:38.955Z,8.59
2022-09-28T06:09:07.351Z,8.48
2022-09-28T06:11:53.759Z,8.47
2022-09-28T06:14:26.414Z,8.48
2022-09-28T06:16:54.913Z,8.50
2022-09-28T06:19:24.096Z,8.56
2022-09-28T06:22:08.191Z,8.52
2022-09-28T06:24:45.200Z,8.52
2022-09-28T06:27:15.019Z,8.51
2022-09-28T06:29:43.933Z,8.54
2022-09-28T06:32:13.846Z,8.57
2022-09-28T06:34:43.051Z,8.58
2022-09-28T06:37:11.607Z,8.57
2022-09-28T06:39:40.034Z,8.60
2022-09-28T06:42:08.385Z,8.65
2022-09-28T06:44:59.297Z,8.61
2022-09-28T06:47:48.278Z,8.62
2022-09-28T06:50:27.671Z,8.68
2022-09-28T06:53:30.125Z,8.67
2022-09-28T06:56:02.951Z,8.70
2022-09-28T06:58:32.215Z,8.68
2022-09-28T07:01:02.636Z,8.69
2022-09-28T07:03:37.552Z,8.64
2022-09-28T07:06:32.131Z,8.66
2022-09-28T07:09:32.607Z,8.63
2022-09-28T07:12:37.331Z,8.71
2022-09-28T07:15:19.239Z,8.67
2022-09-28T07:17:59.653Z,8.69
2022-09-28T07:20:31.087Z,8.68
2022-09-28T07:23:14.346Z,8.77
2022-09-28T07:26:09.075Z,8.70
2022-09-28T07:29:03.794Z,8.66
2022-09-28T07:31:44.263Z,8.67
2022-09-28T07:34:17.373Z,8.67
2022-09-28T07:36:59.943Z,8.71
2022-09-28T07:39:28.240Z,8.74
2022-09-28T07:41:59.825Z,8.72
2022-09-28T07:44:31.424Z,8.81
2022-09-28T07:47:02.105Z,8.80
2022-09-28T07:49:56.378Z,8.86
2022-09-28T07:52:44.271Z,8.92
2022-09-28T07:55:21.366Z,8.97
2022-09-28T07:58:01.152Z,8.98
2022-09-28T08:00:44.952Z,9.04
2022-09-28T08:03:13.905Z,9.05
2022-09-28T08:05:44.031Z,9.07
2022-09-28T08:08:12.418Z,9.07
2022-09-28T08:10:46.776Z,9.10
2022-09-28T08:13:34.308Z,9.21
2022-09-28T08:16:25.720Z,9.27
2022-09-28T08:19:02.307Z,9.27
2022-09-28T08:21:46.312Z,9.35
2022-09-28T08:24:17.538Z,9.35
2022-09-28T08:26:47.211Z,9.31
2022-09-28T08:29:17.981Z,9.33
2022-09-28T08:31:52.268Z,9.40
2022-09-28T08:34:44.138Z,9.40
2022-09-28T08:37:34.091Z,9.38
2022-09-28T08:40:51.494Z,9.35
2022-09-28T08:43:50.809Z,9.38
2022-09-28T08:46:46.807Z,9.40
2022-09-28T08:49:41.571Z,9.45
2022-09-28T08:52:35.655Z,9.49
2022-09-28T08:55:32.205Z,9.54
2022-09-28T08:58:07.587Z,9.55
2022-09-28T09:00:45.238Z,9.59
2022-09-28T09:03:20.819Z,9.62
2022-09-28T09:06:12.564Z,9.63
2022-09-28T09:09:11.971Z,9.67
2022-09-28T09:11:58.204Z,9.66
2022-09-28T09:15:02.702Z,9.72
2022-09-28T09:17:48.828Z,9.76
2022-09-28T09:20:39.525Z,9.78
2022-09-28T09:23:38.313Z,9.84
2022-09-28T09:26:22.061Z,9.85
2022-09-28T09:29:14.695Z,9.83
2022-09-28T09:32:10.766Z,9.89
2022-09-28T09:35:25.890Z,9.91
2022-09-28T09:38:34.260Z,9.95
2022-09-28T09:42:02.235Z,9.99
2022-09-28T09:45:14.026Z,10.16
2022-09-28T09:47:57.824Z,10.16
2022-09-28T09:50:31.531Z,10.27
2022-09-28T09:53:07.781Z,10.20
2022-09-28T09:55:43.749Z,10.31
2022-09-28T09:58:37.310Z,10.14
2022-09-28T10:01:22.204Z,10.25
2022-09-28T10:04:36.254Z,10.29
2022-09-28T10:07:22.089Z,10.28
2022-09-28T10:09:51.914Z,10.29
2022-09-28T10:12:34.773Z,10.32
2022-09-28T10:15:09.416Z,10.31
2022-09-28T10:17:49.849Z,10.30
2022-09-28T10:20:40.296Z,10.32
2022-09-28T10:23:25.967Z,10.33
2022-09-28T10:26:05.642Z,10.36
2022-09-28T10:28:42.120Z,10.47
2022-09-28T10:31:38.187Z,10.47
2022-09-28T10:34:14.075Z,10.47
2022-09-28T10:36:52.312Z,10.49
2022-09-28T10:39:37.455Z,10.50
2022-09-28T10:42:09.666Z,10.46
2022-09-28T10:44:54.359Z,10.50
2022-09-28T10:47:45.855Z,10.58
2022-09-28T10:50:24.092Z,10.62
2022-09-28T10:53:15.865Z,10.70
2022-09-28T10:56:13.930Z,10.77
2022-09-28T10:58:43.008Z,10.78
2022-09-28T11:01:24.503Z,10.81
2022-09-28T11:03:58.428Z,10.81
2022-09-28T11:06:30.650Z,10.81
2022-09-28T11:09:02.399Z,10.89
2022-09-28T11:11:32.472Z,10.90
2022-09-28T11:14:06.641Z,10.93
2022-09-28T11:16:38.195Z,10.95
2022-09-28T11:19:30.340Z,10.94
2022-09-28T11:21:58.743Z,11.00
2022-09-28T11:24:38.791Z,11.02
2022-09-28T11:27:07.309Z,11.09
2022-09-28T11:29:39.940Z,11.16
2022-09-28T11:32:43.041Z,11.21
2022-09-28T11:35:26.736Z,11.31
2022-09-28T11:38:13.430Z,11.38
2022-09-28T11:41:18.910Z,11.51
2022-09-28T11:44:05.233Z,11.59
2022-09-28T11:46:43.484Z,11.60
2022-09-28T11:49:28.588Z,11.68
2022-09-28T11:52:04.834Z,11.80
2022-09-28T11:54:42.060Z,11.91
2022-09-28T11:57:19.797Z,11.95
2022-09-28T11:59:59.543Z,12.06
2022-09-28T12:02:35.768Z,12.16
2022-09-28T12:05:20.966Z,12.27
2022-09-28T12:07:57.537Z,12.29
2022-09-28T12:10:50.936Z,12.35
2022-09-28T12:13:29.555Z,12.42
2022-09-28T12:16:32.351Z,12.34
2022-09-28T12:18:56.191Z,12.38
2022-09-28T12:21:37.791Z,12.36
2022-09-28T12:24:17.268Z,12.35
2022-09-28T12:26:53.400Z,12.31
2022-09-28T12:29:29.070Z,12.26
2022-09-28T12:32:13.445Z,12.27
2022-09-28T12:34:43.373Z,12.30
2022-09-28T12:37:34.147Z,12.34
2022-09-28T12:40:29.078Z,12.34
2022-09-28T12:43:11.937Z,12.45
2022-09-28T12:46:16.666Z,12.50
2022-09-28T12:50:20.053Z,12.54
2022-09-28T12:52:24.818Z,12.50
2022-09-28T12:55:23.321Z,12.55
2022-09-28T12:58:01.032Z,12.60
2022-09-28T13:00:40.055Z,12.68
2022-09-28T13:03:45.862Z,12.68
2022-09-28T13:06:37.539Z,12.67
2022-09-28T13:09:23.873Z,12.71
2022-09-28T13:12:16.577Z,12.67
2022-09-28T13:15:27.738Z,12.76
2022-09-28T13:18:05.048Z,12.71
2022-09-28T13:20:45.832Z,12.76
2022-09-28T13:23:21.011Z,12.76
2022-09-28T13:25:56.054Z,12.81
2022-09-28T13:28:28.461Z,12.91
2022-09-28T13:33:35.852Z,12.98
2022-09-28T13:36:05.644Z,12.98
2022-09-28T13:38:56.253Z,13.04
2022-09-28T13:41:31.611Z,13.13
2022-09-28T13:44:48.795Z,13.20
2022-09-28T13:47:46.405Z,13.17
2022-09-28T13:50:29.827Z,13.21
2022-09-28T13:53:09.032Z,13.27
2022-09-28T13:55:53.898Z,13.37
2022-09-28T13:58:27.593Z,13.45
2022-09-28T14:01:05.170Z,13.47
2022-09-28T14:03:55.343Z,13.45
2022-09-28T14:06:27.318Z,13.51
2022-09-28T14:09:42.240Z,13.46
2022-09-28T14:12:45.064Z,13.45
2022-09-28T14:15:44.345Z,13.56
2022-09-28T14:18:26.001Z,13.64
2022-09-28T14:21:31.172Z,13.62
2022-09-28T14:24:18.679Z,13.72
2022-09-28T14:27:24.777Z,13.62
2022-09-28T14:29:56.039Z,13.55
2022-09-28T14:32:26.404Z,13.62
2022-09-28T14:35:03.609Z,13.74
2022-09-28T14:37:52.644Z,13.74
2022-09-28T14:40:45.856Z,13.72
2022-09-28T14:43:28.467Z,13.79
2022-09-28T14:46:38.282Z,13.84
2022-09-28T14:49:42.767Z,13.83
2022-09-28T14:52:14.693Z,13.83
2022-09-28T14:54:52.822Z,13.75
2022-09-28T14:57:25.673Z,13.70
2022-09-28T14:59:54.976Z,13.69
2022-09-28T15:02:32.072Z,13.61
2022-09-28T15:05:20.587Z,13.60
2022-09-28T15:07:59.906Z,13.71
2022-09-28T15:10:37.539Z,13.71
2022-09-28T15:13:20.882Z,13.65
2022-09-28T15:15:59.760Z,13.56
2022-09-28T15:19:18.972Z,13.62
2022-09-28T15:21:51.247Z,13.63
2022-09-28T15:24:31.359Z,13.65
2022-09-28T15:27:00.602Z,13.89
2022-09-28T15:29:33.443Z,14.00
2022-09-28T15:32:02.163Z,14.11
2022-09-28T15:34:50.348Z,14.06
2022-09-28T15:37:22.383Z,14.09
2022-09-28T15:39:53.898Z,14.22
2022-09-28T15:42:23.101Z,14.17
2022-09-28T15:45:30.960Z,14.14
2022-09-28T15:48:20.597Z,14.19
2022-09-28T15:51:02.637Z,14.24
2022-09-28T15:53:31.396Z,14.18
2022-09-28T15:56:10.214Z,14.10
2022-09-28T15:58:41.394Z,14.07
2022-09-28T16:01:35.965Z,14.01
2022-09-28T16:04:37.638Z,14.00
2022-09-28T16:07:20.042Z,13.98
2022-09-28T16:10:06.322Z,13.96
2022-09-28T16:12:46.611Z,13.83
2022-09-28T16:15:20.737Z,13.85
2022-09-28T16:17:55.492Z,13.76
2022-09-28T16:20:29.341Z,13.68
2022-09-28T16:23:05.629Z,13.69
2022-09-28T16:25:37.108Z,13.67
2022-09-28T16:28:07.399Z,13.63
2022-09-28T16:30:36.156Z,13.56
2022-09-28T16:33:07.114Z,13.57
2022-09-28T16:35:51.903Z,13.54
2022-09-28T16:38:21.709Z,13.58
2022-09-28T16:40:53.636Z,13.53
2022-09-28T16:43:27.840Z,13.55
2022-09-28T16:45:58.262Z,13.54
2022-09-28T16:48:28.871Z,13.49
2022-09-28T16:50:57.859Z,13.48
2022-09-28T16:53:44.362Z,13.43
2022-09-28T16:56:13.961Z,13.39
2022-09-28T16:58:44.144Z,13.39
2022-09-28T17:01:16.501Z,13.37
2022-09-28T17:03:48.191Z,13.32
2022-09-28T17:06:18.509Z,13.27
2022-09-28T17:08:47.223Z,13.26
2022-09-28T17:11:23.757Z,13.24
2022-09-28T17:13:56.830Z,13.18
2022-09-28T17:16:57.316Z,13.15
2022-09-28T17:19:21.854Z,13.03
2022-09-28T17:21:52.207Z,13.00
2022-09-28T17:24:21.419Z,12.95
2022-09-28T17:26:52.540Z,12.96
2022-09-28T17:29:22.512Z,12.90
2022-09-28T17:31:50.851Z,12.87
2022-09-28T17:34:19.784Z,12.86
2022-09-28T17:36:48.878Z,12.80
2022-09-28T17:39:19.808Z,12.77
2022-09-28T17:41:48.749Z,12.75
2022-09-28T17:44:17.430Z,12.65
2022-09-28T17:46:49.830Z,12.64
2022-09-28T17:49:18.880Z,12.63
2022-09-28T17:51:47.511Z,12.58
2022-09-28T17:54:19.891Z,12.57
2022-09-28T17:56:48.735Z,12.56
2022-09-28T17:59:19.187Z,12.52
2022-09-28T18:01:49.244Z,12.49
2022-09-28T18:04:39.696Z,12.45
2022-09-28T18:07:06.619Z,12.41
2022-09-28T18:09:35.105Z,12.37
2022-09-28T18:12:06.339Z,12.28
2022-09-28T18:14:35.765Z,12.17
2022-09-28T18:17:05.499Z,12.04
2022-09-28T18:19:33.784Z,11.95
2022-09-28T18:22:02.326Z,11.79
2022-09-28T18:24:32.327Z,11.71
2022-09-28T18:27:00.913Z,11.65
2022-09-28T18:29:33.122Z,11.62
2022-09-28T18:32:02.510Z,11.60
2022-09-28T18:34:32.199Z,11.58
2022-09-28T18:37:00.585Z,11.55
2022-09-28T18:39:29.013Z,11.51
2022-09-28T18:41:57.887Z,11.38
2022-09-28T18:44:26.429Z,11.30
2022-09-28T18:46:54.857Z,11.29
2022-09-28T18:49:23.669Z,11.21
2022-09-28T18:51:53.299Z,11.16
2022-09-28T18:54:21.590Z,11.11
2022-09-28T18:56:51.215Z,11.06
2022-09-28T18:59:19.729Z,11.00
2022-09-28T19:01:48.206Z,10.94
2022-09-28T19:04:17.158Z,10.97
2022-09-28T19:06:50.417Z,10.93
2022-09-28T19:09:24.567Z,10.86
2022-09-28T19:11:53.138Z,10.78
2022-09-28T19:14:21.757Z,10.70
2022-09-28T19:16:50.667Z,10.69
2022-09-28T19:19:21.534Z,10.64
2022-09-28T19:21:50.119Z,10.57
2022-09-28T19:24:20.909Z,10.50
2022-09-28T19:26:49.976Z,10.49
2022-09-28T19:29:18.499Z,10.43
2022-09-28T19:31:47.419Z,10.31
2022-09-28T19:34:16.432Z,10.32
2022-09-28T19:36:45.576Z,10.26
2022-09-28T19:39:15.762Z,10.31
2022-09-28T19:41:49.677Z,10.25
2022-09-28T19:44:24.949Z,10.23
2022-09-28T19:46:55.660Z,10.14
2022-09-28T19:49:26.352Z,10.05
2022-09-28T19:52:14.686Z,10.07
2022-09-28T19:54:45.532Z,10.00
2022-09-28T19:57:16.271Z,9.96
2022-09-28T19:59:47.475Z,9.95
2022-09-28T20:02:19.280Z,9.94
2022-09-28T20:04:48.157Z,9.91
2022-09-28T20:07:16.767Z,9.92
2022-09-28T20:09:45.204Z,9.84
2022-09-28T20:12:14.993Z,9.83
2022-09-28T20:14:43.288Z,9.83
2022-09-28T20:17:11.579Z,9.71
2022-09-28T20:19:40.127Z,9.70
2022-09-28T20:22:09.064Z,9.70
2022-09-28T20:24:37.474Z,9.66
2022-09-28T20:27:05.926Z,9.61
2022-09-28T20:29:35.636Z,9.57
2022-09-28T20:32:04.991Z,9.55
2022-09-28T20:34:34.290Z,9.57
2022-09-28T20:37:02.810Z,9.52
2022-09-28T20:39:31.074Z,9.51
2022-09-28T20:41:59.518Z,9.54
2022-09-28T20:44:27.960Z,9.51
2022-09-28T20:46:57.873Z,9.50
2022-09-28T20:49:27.178Z,9.45
2022-09-28T20:51:55.603Z,9.46
2022-09-28T20:54:23.998Z,9.51
2022-09-28T20:56:52.559Z,9.42
2022-09-28T20:59:22.771Z,9.37
2022-09-28T21:01:52.359Z,9.33
2022-09-28T21:04:22.564Z,9.31
2022-09-28T21:06:50.999Z,9.25
2022-09-28T21:09:19.317Z,9.25
2022-09-28T21:11:48.464Z,9.20
2022-09-28T21:14:17.134Z,9.23
2022-09-28T21:16:45.727Z,9.18
2022-09-28T21:19:14.052Z,9.19
2022-09-28T21:21:43.776Z,9.15
2022-09-28T21:24:12.562Z,9.09
2022-09-28T21:26:41.058Z,9.17
2022-09-28T21:29:14.537Z,9.16
2022-09-28T21:31:46.646Z,9.10
2022-09-28T21:34:19.325Z,9.12
2022-09-28T21:36:51.147Z,9.05
2022-09-28T21:39:20.765Z,9.06
2022-09-28T21:41:49.381Z,9.02
2022-09-28T21:44:17.997Z,9.03
2022-09-28T21:46:46.487Z,9.00
2022-09-28T21:49:14.787Z,8.94
2022-09-28T21:51:43.229Z,8.92
2022-09-28T21:54:13.706Z,8.90
2022-09-28T21:56:42.202Z,8.88
2022-09-28T21:59:10.507Z,8.89
2022-09-28T22:01:39.098Z,8.84
2022-09-28T22:04:07.449Z,8.84
2022-09-28T22:06:35.829Z,8.87
2022-09-28T22:09:05.402Z,8.82
2022-09-28T22:11:35.179Z,8.80
2022-09-28T22:14:03.636Z,8.72
2022-09-28T22:16:32.763Z,8.75
2022-09-28T22:19:01.583Z,8.75
2022-09-28T22:21:32.644Z,8.68
2022-09-28T22:24:02.567Z,8.69
2022-09-28T22:26:35.126Z,8.70
2022-09-28T22:29:07.162Z,8.68
2022-09-28T22:31:38.435Z,8.75
2022-09-28T22:34:07.590Z,8.71
2022-09-28T22:36:36.547Z,8.71
2022-09-28T22:39:05.094Z,8.67
2022-09-28T22:41:35.510Z,8.71
2022-09-28T22:44:04.287Z,8.65
2022-09-28T22:46:32.897Z,8.58
2022-09-28T22:49:01.929Z,8.56
2022-09-28T22:51:32.004Z,8.53
2022-09-28T22:54:01.128Z,8.51
2022-09-28T22:56:30.328Z,8.46
2022-09-28T22:59:00.429Z,8.48
2022-09-28T23:01:31.011Z,8.50
2022-09-28T23:04:00.960Z,8.52
2022-09-28T23:06:31.283Z,8.51
2022-09-28T23:09:00.250Z,8.54
2022-09-28T23:11:29.917Z,8.53
2022-09-28T23:14:00.691Z,8.54
2022-09-28T23:16:30.053Z,8.52
2022-09-28T23:18:58.866Z,8.44
2022-09-28T23:21:28.411Z,8.41
2022-09-28T23:24:01.015Z,8.33
2022-09-28T23:26:33.188Z,8.33
2022-09-28T23:29:04.490Z,8.24
2022-09-28T23:31:34.398Z,8.19
2022-09-28T23:34:07.701Z,8.17
2022-09-28T23:36:36.032Z,8.09
2022-09-28T23:39:05.155Z,8.10
2022-09-28T23:41:33.517Z,8.13
2022-09-28T23:44:03.862Z,8.11
2022-09-28T23:46:32.323Z,8.07
2022-09-28T23:49:00.876Z,8.08
2022-09-28T23:51:29.656Z,8.09
2022-09-28T23:53:57.923Z,8.07
2022-09-28T23:56:26.305Z,8.08
2022-09-28T23:58:54.573Z,8.04
